KSVC/SVC METAR and TAF weather

Enter ICAO airport designator
Station Type Date Time Source
KSVC METAR 2020/02/29 02:35 UTC NOAA

KSVC 290235Z AUTO 00000KT 10SM CLR 08/M07 A3032 RMK AO2 T00751067


Station Type Date Time Source
KSVC Decoded METAR 2020/02/29 02:35 UTC NOAA

Silver City / Grant, NM, United States (KSVC) 32-38N 108-09W
Feb 28, 2020 - 09:35 PM EST / 2020.02.29 0235 UTC
Wind: Calm:0
Visibility: 10 mile(s):0
Sky conditions: clear
Temperature: 45.5 F (7.5 C)
Dew Point: 19.9 F (-6.7 C)
Relative Humidity: 35%
Pressure (altimeter): 30.32 in. Hg (1026 hPa)
ob: KSVC 290235Z AUTO 00000KT 10SM CLR 08/M07 A3032 RMK AO2 T00751067
cycle: 2

Station Type Date Time Source
KSVC TAF UTC NOAA

Error!

Example: see airport list